Latest Coastal Weather Observations for Laverton

IDV60701

Issued at 11:02 am EDT Thursday 23 February 2017 (issued every 10 minutes, with the page automatically refreshed every 10 minutes)

About coastal observations | Map of coastal stations | Coastal observations for VIC | Marine services | Other Formats
Station Details ID: 087031 Name: LAVERTON RAAF Lat: -37.86 Lon: 144.76 Height: 20.1 m
Data from the previous 72 hours. | See also: Recent months at Laverton
Date/Time
EDT
Temp
°C
Wind Pressure Rain since
9am
mm
Weather Cloud Vis
km
Sea
Height
m
Swell
Dir  Spd
kts
Gust
kts
hPa Trend Height
m
Period
s
Dir
23/11:00am 21.6 WSW 12 18 1018.0 - 0.0 - Partly cloudy 10 - - - -
23/10:30am 21.6 WSW 13 17 1017.8 - 0.0 - Partly cloudy 10 - - - -
23/10:00am 20.7 W 13 19 1017.6 - 0.0 - Partly cloudy 10 - - - -
23/09:30am 20.2 W 13 20 1017.3 - 0.0 - Partly cloudy 10 - - - -
23/09:00am 19.6 SW 13 16 1017.1 - 0.0 - - 10 - - - -
23/08:30am 18.8 WSW 9 13 1016.7 - 0.0 - - 10 - - - -
23/08:00am 15.9 WNW 4 5 1016.2 - 0.0 - - 10 - - - -
23/07:45am 14.8 WNW 5 7 1015.9 - 0.0 - - 10 - - - -
23/07:30am 13.8 NW 6 7 1015.5 - 0.0 - - 6 - - - -
23/07:09am 13.9 NW 7 7 1015.0 - 0.0 - - 7 - - - -
23/07:00am 13.8 NW 7 8 1014.8 - 0.0 - - 10 - - - -
23/06:30am 13.2 NW 5 6 1014.3 - 0.0 - - 10 - - - -
23/06:00am 13.7 WNW 4 4 1013.9 - 0.0 - - 10 - - - -
23/05:30am 13.7 NW 5 5 1013.5 - 0.0 - - 10 - - - -
23/05:00am 14.6 NW 5 6 1013.3 - 0.0 - - 10 - - - -
23/04:30am 15.6 NW 4 5 1013.0 - 0.0 - - 10 - - - -
23/04:00am 15.9 NNW 2 5 1012.9 - 0.0 - - 10 - - - -
23/03:30am 16.6 CALM 0 3 1012.7 - 0.0 - - 10 - - - -
23/03:00am 17.7 NE 3 4 1012.7 - 0.0 - Partly cloudy 10 - - - -
23/02:30am 16.8 N 3 4 1012.7 - 0.0 - - 10 - - - -
23/02:00am 17.4 N 4 5 1012.6 - 0.0 - - 10 - - - -
23/01:30am 17.4 NNW 4 5 1012.6 - 0.0 - - 10 - - - -
23/01:00am 18.4 W 3 4 1012.1 - 0.0 - - 10 - - - -
23/12:30am 18.7 W 2 4 1011.8 - 0.0 - - 10 - - - -
23/12:00am 19.1 WSW 5 6 1011.7 - 0.0 - - 10 - - - -
 
Date/Time
EDT
Temp
°C
Wind Pressure Rain since
9am
mm
Weather Cloud Vis
km
Sea
Height
m
Swell
Dir  Spd
kts
Gust
kts
hPa Trend Height
m
Period
s
Dir
22/11:30pm 19.6 SSW 9 13 1011.1 - 0.0 - - 10 - - - -
22/11:00pm 20.1 SSW 16 24 1010.5 - 0.0 - - 10 - - - -
22/10:30pm 22.7 WSW 17 27 1009.7 - 0.0 - - 10 - - - -
22/10:26pm 24.2 WSW 14 27 1009.4 - 0.0 - - 10 - - - -
22/10:22pm 26.4 NW 10 22 1009.2 - 0.0 - - 10 - - - -
22/10:00pm 28.3 N 7 10 1008.0 - 0.0 - - 10 - - - -
22/09:30pm 28.7 NNE 7 10 1007.6 - 0.0 - - 10 - - - -
22/09:00pm 30.0 NNE 8 13 1007.4 - 0.0 - - 10 - - - -
22/08:30pm 30.8 N 8 12 1007.4 - 0.0 - - 10 - - - -
22/08:00pm 32.0 N 9 15 1007.3 - 0.0 - - 10 - - - -
22/07:30pm 32.9 N 11 19 1007.2 - 0.0 - - 10 - - - -
22/07:00pm 33.1 N 13 21 1007.3 - 0.0 - - 10 - - - -
22/06:30pm 33.7 N 16 23 1007.3 - 0.0 - - 10 - - - -
22/06:00pm 33.5 N 16 26 1007.7 - 0.0 - - 10 - - - -
22/05:39pm 33.8 N 17 27 1008.0 - 0.0 - - 10 - - - -
22/05:30pm 33.9 N 17 25 1008.0 - 0.0 - - 10 - - - -
22/05:04pm 34.0 N 15 25 1008.1 - 0.0 - - 10 - - - -
22/05:00pm 33.8 N 15 23 1008.2 - 0.0 - - 10 - - - -
22/04:30pm 32.6 N 17 28 1008.7 - 0.0 - - 10 - - - -
22/04:00pm 32.6 N 15 25 1009.0 - 0.0 - - 10 - - - -
22/03:39pm 32.3 N 17 28 1009.0 - 0.0 - - 10 - - - -
22/03:30pm 32.5 N 17 25 1009.2 - 0.0 - - 10 - - - -
22/03:02pm 32.1 N 17 27 1009.7 - 0.0 - - 10 - - - -
22/03:00pm 32.1 NNE 18 27 1009.8 - 0.0 - - 10 - - - -
22/02:43pm 32.4 N 16 26 1010.0 - 0.0 - - 10 - - - -
22/02:30pm 31.8 N 15 24 1010.7 - 0.0 - - 10 - - - -
22/02:02pm 31.4 N 15 25 1011.2 - 0.0 - - 10 - - - -
22/02:00pm 31.4 N 14 25 1011.2 - 0.0 - - 10 - - - -
22/01:35pm 30.3 N 15 28 1011.7 - 0.0 - - 10 - - - -
22/01:30pm 30.9 N 14 23 1011.7 - 0.0 - - 10 - - - -
22/01:07pm 30.0 N 15 25 1012.2 - 0.0 - - 10 - - - -
22/01:00pm 30.1 N 14 23 1012.3 - 0.0 - - 10 - - - -
22/12:30pm 28.9 N 15 22 1012.9 - 0.0 - - 10 - - - -
22/12:00pm 28.9 N 12 18 1013.5 - 0.0 - - 10 - - - -
22/11:30am 26.9 NNE 14 21 1014.1 - 0.0 - - 10 - - - -
22/11:00am 26.2 NNE 17 24 1014.7 - 0.0 - - 10 - - - -
22/10:30am 25.2 N 17 25 1015.0 - 0.0 - - 10 - - - -
22/10:00am 24.2 NNE 15 21 1015.0 - 0.0 - - 10 - - - -
22/09:30am 21.8 N 10 17 1015.1 - 0.0 - - 10 - - - -
22/09:00am 19.6 N 9 15 1015.3 - 0.0 - - 10 - - - -
22/08:30am 16.8 NNE 6 9 1015.3 - 0.0 - - 10 - - - -
22/08:00am 14.1 NNE 5 8 1015.4 - 0.0 - - 10 - - - -
22/07:30am 12.1 NNE 5 7 1015.3 - 0.0 - - 10 - - - -
22/07:00am 11.2 NE 3 5 1015.3 - 0.0 - - 10 - - - -
22/06:30am 11.9 NNE 6 7 1015.2 - 0.0 - - 10 - - - -
22/06:00am 11.4 NE 5 7 1014.9 - 0.0 - - 10 - - - -
22/05:30am 11.0 NE 6 7 1014.9 - 0.0 - - 10 - - - -
22/05:00am 11.2 NNE 5 5 1015.2 - 0.0 - - 10 - - - -
22/04:30am 10.9 NE 4 5 1015.4 - 0.0 - - 10 - - - -
22/04:00am 11.8 NNE 5 6 1015.7 - 0.0 - - 10 - - - -
22/03:30am 11.1 N 5 6 1015.8 - 0.0 - - 10 - - - -
22/03:00am 11.2 NNW 3 4 1016.2 - 0.0 - - 10 - - - -
22/02:30am 11.4 NNW 4 6 1016.4 - 0.0 - - 10 - - - -
22/02:00am 11.6 NNW 5 6 1016.8 - 0.0 - - 10 - - - -
22/01:30am 11.9 NW 5 6 1017.0 - 0.0 - - 10 - - - -
22/01:00am 13.0 NW 6 6 1017.4 - 0.0 - - 10 - - - -
22/12:30am 14.0 WNW 5 6 1017.8 - 0.0 - - 10 - - - -
22/12:00am 15.6 SE 3 4 1018.1 - 0.0 - - 10 - - - -
 
Date/Time
EDT
Temp
°C
Wind Pressure Rain since
9am
mm
Weather Cloud Vis
km
Sea
Height
m
Swell
Dir  Spd
kts
Gust
kts
hPa Trend Height
m
Period
s
Dir
21/11:30pm 16.2 ESE 4 6 1018.2 - 0.0 - - 10 - - - -
21/11:00pm 16.3 ESE 5 7 1018.3 - 0.0 - - 10 - - - -
21/10:30pm 17.0 ESE 5 8 1018.5 - 0.0 - - 10 - - - -
21/10:00pm 17.9 ESE 9 14 1018.4 - 0.0 - - 10 - - - -
21/09:30pm 18.2 SE 7 10 1018.3 - 0.0 - - 10 - - - -
21/09:00pm 18.6 ESE 8 11 1017.8 - 0.0 - - 10 - - - -
21/08:30pm 19.2 SE 9 12 1017.6 - 0.0 - - 10 - - - -
21/08:00pm 19.7 SE 10 14 1017.3 - 0.0 - - 10 - - - -
21/07:30pm 20.3 SE 10 14 1017.2 - 0.0 - - 10 - - - -
21/07:00pm 20.9 SE 11 16 1017.4 - 0.0 - - 10 - - - -
21/06:30pm 21.2 SE 9 13 1017.4 - 0.0 - - 10 - - - -
21/06:00pm 21.3 SE 11 14 1017.5 - 0.0 - - 10 - - - -
21/05:30pm 21.4 SE 11 14 1017.7 - 0.0 - - 10 - - - -
21/05:00pm 21.4 SE 11 15 1017.9 - 0.0 - - 10 - - - -
21/04:30pm 21.5 SE 11 16 1018.5 - 0.0 - - 10 - - - -
21/04:00pm 21.3 SE 11 15 1018.7 - 0.0 - - 10 - - - -
21/03:30pm 21.6 SE 10 13 1019.0 - 0.0 - - 10 - - - -
21/03:00pm 21.4 SE 8 13 1019.5 - 0.0 - - 10 - - - -
21/02:30pm 21.1 SE 7 11 1019.8 - 0.0 - - 10 - - - -
21/02:00pm 20.4 ESE 8 13 1020.1 - 0.0 - - 10 - - - -
21/01:30pm 20.0 ESE 8 12 1020.5 - 0.0 - - 10 - - - -
21/01:00pm 19.8 E 9 14 1020.9 - 0.0 - - 10 - - - -
21/12:30pm 19.5 ESE 6 9 1021.4 - 0.0 - - 10 - - - -
21/12:00pm 19.0 SSE 4 9 1021.5 - 0.0 - Mostly clear 10 - - - -
21/11:30am 18.9 SW 4 6 1021.4 - 0.0 - Partly cloudy 10 - - - -
21/11:00am 18.4 S 5 7 1021.7 - 0.0 - Partly cloudy 10 - - - -
21/10:30am 17.3 ESE 3 5 1021.9 - 0.0 - - 10 - - - -
21/10:00am 16.0 WNW 5 6 1022.0 - 0.0 - - 10 - - - -
21/09:30am 15.2 W 4 6 1021.8 - 0.0 - - 10 - - - -
21/09:00am 13.8 NW 5 7 1021.5 - 0.0 - - 10 - - - -
21/08:30am 11.6 NW 4 6 1021.2 - 0.0 - - 10 - - - -
21/08:00am 9.8 NW 5 6 1021.0 - 0.0 - - 10 - - - -
21/07:30am 7.9 NNW 5 6 1020.5 - 0.0 - - 10 - - - -
21/07:00am 8.0 NNW 5 6 1020.1 - 0.0 - - 10 - - - -
21/06:30am 7.8 NNW 6 7 1019.6 - 0.0 - - 10 - - - -
21/06:00am 7.8 NW 6 7 1019.2 - 0.0 - - 10 - - - -
21/05:30am 8.2 NW 7 7 1019.1 - 0.0 - - 10 - - - -
21/05:00am 8.4 WNW 5 6 1019.0 - 0.0 - - 10 - - - -
21/04:30am 8.2 NW 7 8 1019.0 - 0.0 - - 10 - - - -
21/04:00am 8.4 NW 7 8 1018.8 - 0.0 - - 10 - - - -
21/03:30am 8.6 NW 7 8 1018.9 - 0.0 - - 10 - - - -
21/03:00am 8.9 NW 8 9 1018.8 - 0.0 - - 10 - - - -
21/02:30am 8.8 NW 7 8 1018.6 - 0.0 - - 10 - - - -
21/02:00am 9.2 NW 7 9 1018.8 - 0.0 - - 10 - - - -
21/01:30am 9.5 NW 6 8 1018.9 - 0.0 - - 10 - - - -
21/01:00am 9.4 NW 7 8 1019.0 - 0.0 - - 10 - - - -
21/12:30am 10.3 NW 8 9 1019.1 - 0.0 - - 10 - - - -
21/12:00am 11.8 WNW 6 8 1018.9 - 0.0 - - 10 - - - -
 
Date/Time
EDT
Temp
°C
Wind Pressure Rain since
9am
mm
Weather Cloud Vis
km
Sea
Height
m
Swell
Dir  Spd
kts
Gust
kts
hPa Trend Height
m
Period
s
Dir
20/11:30pm 13.9 W 7 11 1018.9 - 0.0 - - 10 - - - -
20/11:00pm 14.4 W 8 10 1018.7 - 0.0 - Partly cloudy 10 - - - -
20/10:30pm 15.1 WSW 8 11 1018.6 - 0.0 - Cloudy 10 - - - -
20/10:00pm 14.9 WSW 6 8 1018.2 - 0.0 - Partly cloudy 10 - - - -
20/09:30pm 14.8 SW 6 8 1017.9 - 0.0 - - 10 - - - -
20/09:00pm 15.5 SSW 8 12 1017.4 - 0.0 - - 10 - - - -
20/08:30pm 15.9 SSW 9 13 1016.8 - 0.0 - Partly cloudy 10 - - - -
20/08:00pm 16.9 SSW 11 15 1016.4 - 0.0 - Partly cloudy 10 - - - -
20/07:30pm 17.5 SSW 12 16 1015.8 - 0.0 - Partly cloudy 10 - - - -
20/07:00pm 17.7 SSW 12 17 1015.4 - 0.0 - Partly cloudy 10 - - - -
20/06:30pm 17.7 S 13 19 1014.9 - 0.0 - Partly cloudy 10 - - - -
20/06:00pm 18.0 SSW 14 19 1014.7 - 0.0 - Partly cloudy 10 - - - -
20/05:30pm 18.4 SSW 13 18 1014.4 - 0.0 - Partly cloudy 10 - - - -
20/05:00pm 18.5 S 11 16 1014.0 - 0.0 - Partly cloudy 10 - - - -
20/04:30pm 19.0 SSW 14 19 1013.7 - 0.0 - Partly cloudy 10 - - - -
20/04:00pm 18.9 S 11 17 1013.4 - 0.0 - Partly cloudy 10 - - - -
20/03:30pm 19.7 SSW 12 16 1013.2 - 0.0 - Partly cloudy 10 - - - -
20/03:00pm 20.1 SSW 15 22 1013.2 - 0.0 - Cloudy 10 - - - -
20/02:30pm 20.6 WSW 17 24 1013.1 - 0.0 - Partly cloudy 10 - - - -
20/02:11pm 20.7 WSW 16 26 1013.1 - 0.0 - Partly cloudy 10 - - - -
20/02:00pm 20.3 SW 16 24 1013.3 - 0.0 - Partly cloudy 10 - - - -
20/01:30pm 19.4 SW 13 19 1013.2 - 0.0 - Partly cloudy 10 - - - -
20/01:00pm 19.2 W 16 23 1013.2 - 0.0 - Partly cloudy 10 - - - -
20/12:30pm 19.1 WSW 17 23 1013.4 - 0.0 - Partly cloudy 10 - - - -
20/12:11pm 19.2 WSW 16 26 1013.3 - 0.0 - Partly cloudy 10 - - - -
20/12:00pm 18.9 WSW 17 26 1013.5 - 0.0 - Mostly clear 10 - - - -
20/11:30am 18.2 WSW 16 22 1013.5 - 0.0 - Partly cloudy 10 - - - -

Other Formats:

Comma delimited format used in spreadsheet applications
http://www.bom.gov.au/fwo/IDV60701/IDV60701.94865.axf

JavaScript Object Notation format (JSON) in row-major order
http://www.bom.gov.au/fwo/IDV60701/IDV60701.94865.json